sensor_id;sensor_type;location;lat;lon;timestamp;P1;durP1;ratioP1;P2;durP2;ratioP2
7398;SDS011;3740;50.700;7.184;2023-03-04T00:01:42;88.80;;;59.27;;
7398;SDS011;3740;50.700;7.184;2023-03-04T00:04:08;89.67;;;59.07;;
7398;SDS011;3740;50.700;7.184;2023-03-04T00:06:33;91.37;;;59.93;;
7398;SDS011;3740;50.700;7.184;2023-03-04T00:08:59;101.47;;;62.83;;
7398;SDS011;3740;50.700;7.184;2023-03-04T00:11:25;94.53;;;60.73;;
7398;SDS011;3740;50.700;7.184;2023-03-04T00:13:50;91.37;;;58.30;;
7398;SDS011;3740;50.700;7.184;2023-03-04T00:16:16;98.47;;;61.97;;
7398;SDS011;3740;50.700;7.184;2023-03-04T00:18:42;91.97;;;60.67;;
7398;SDS011;3740;50.700;7.184;2023-03-04T00:21:07;93.47;;;60.57;;
7398;SDS011;3740;50.700;7.184;2023-03-04T00:23:33;90.83;;;59.63;;
7398;SDS011;3740;50.700;7.184;2023-03-04T00:25:59;90.93;;;61.10;;
7398;SDS011;3740;50.700;7.184;2023-03-04T00:28:24;91.77;;;60.90;;
7398;SDS011;3740;50.700;7.184;2023-03-04T00:30:50;97.63;;;62.53;;
7398;SDS011;3740;50.700;7.184;2023-03-04T00:33:16;92.83;;;60.90;;
7398;SDS011;3740;50.700;7.184;2023-03-04T00:35:41;90.37;;;60.10;;
7398;SDS011;3740;50.700;7.184;2023-03-04T00:38:07;95.47;;;61.87;;
7398;SDS011;3740;50.700;7.184;2023-03-04T00:40:33;93.77;;;59.17;;
7398;SDS011;3740;50.700;7.184;2023-03-04T00:42:58;97.87;;;63.03;;
7398;SDS011;3740;50.700;7.184;2023-03-04T00:45:24;92.63;;;60.73;;
7398;SDS011;3740;50.700;7.184;2023-03-04T00:47:49;93.93;;;60.33;;
7398;SDS011;3740;50.700;7.184;2023-03-04T00:50:15;91.57;;;59.03;;
7398;SDS011;3740;50.700;7.184;2023-03-04T00:52:40;91.63;;;59.77;;
7398;SDS011;3740;50.700;7.184;2023-03-04T00:55:06;91.97;;;61.10;;
7398;SDS011;3740;50.700;7.184;2023-03-04T00:57:33;91.30;;;60.67;;
7398;SDS011;3740;50.700;7.184;2023-03-04T00:59:58;84.73;;;59.63;;
7398;SDS011;3740;50.700;7.184;2023-03-04T01:02:24;92.53;;;60.90;;
7398;SDS011;3740;50.700;7.184;2023-03-04T01:04:50;89.63;;;57.90;;
7398;SDS011;3740;50.700;7.184;2023-03-04T01:07:16;87.87;;;60.27;;
7398;SDS011;3740;50.700;7.184;2023-03-04T01:09:42;95.33;;;63.77;;
7398;SDS011;3740;50.700;7.184;2023-03-04T01:12:07;92.33;;;59.10;;
7398;SDS011;3740;50.700;7.184;2023-03-04T01:14:33;88.32;;;63.30;;
7398;SDS011;3740;50.700;7.184;2023-03-04T01:16:59;90.90;;;61.20;;
7398;SDS011;3740;50.700;7.184;2023-03-04T01:19:24;90.03;;;58.13;;
7398;SDS011;3740;50.700;7.184;2023-03-04T01:21:50;96.80;;;61.23;;
7398;SDS011;3740;50.700;7.184;2023-03-04T01:24:15;89.00;;;58.77;;
7398;SDS011;3740;50.700;7.184;2023-03-04T01:26:41;86.83;;;57.33;;
7398;SDS011;3740;50.700;7.184;2023-03-04T01:29:06;88.60;;;57.57;;
7398;SDS011;3740;50.700;7.184;2023-03-04T01:31:32;90.43;;;59.67;;
7398;SDS011;3740;50.700;7.184;2023-03-04T01:33:57;93.97;;;59.27;;
7398;SDS011;3740;50.700;7.184;2023-03-04T01:36:23;86.30;;;56.70;;
7398;SDS011;3740;50.700;7.184;2023-03-04T01:38:48;86.23;;;57.33;;
7398;SDS011;3740;50.700;7.184;2023-03-04T01:41:14;80.43;;;56.23;;
7398;SDS011;3740;50.700;7.184;2023-03-04T01:43:42;79.07;;;56.50;;
7398;SDS011;3740;50.700;7.184;2023-03-04T01:46:09;79.13;;;54.83;;
7398;SDS011;3740;50.700;7.184;2023-03-04T01:48:39;83.03;;;56.47;;
7398;SDS011;3740;50.700;7.184;2023-03-04T01:51:06;88.07;;;59.27;;
7398;SDS011;3740;50.700;7.184;2023-03-04T01:53:37;86.60;;;58.07;;
7398;SDS011;3740;50.700;7.184;2023-03-04T01:56:10;87.10;;;57.97;;
7398;SDS011;3740;50.700;7.184;2023-03-04T01:59:08;84.50;;;57.40;;
7398;SDS011;3740;50.700;7.184;2023-03-04T02:01:37;86.03;;;57.37;;
7398;SDS011;3740;50.700;7.184;2023-03-04T02:04:04;85.53;;;55.70;;
7398;SDS011;3740;50.700;7.184;2023-03-04T02:06:32;88.03;;;59.27;;
7398;SDS011;3740;50.700;7.184;2023-03-04T02:08:58;86.40;;;57.10;;
7398;SDS011;3740;50.700;7.184;2023-03-04T02:11:24;89.53;;;59.00;;
7398;SDS011;3740;50.700;7.184;2023-03-04T02:13:50;90.67;;;60.53;;
7398;SDS011;3740;50.700;7.184;2023-03-04T02:16:17;83.53;;;57.07;;
7398;SDS011;3740;50.700;7.184;2023-03-04T02:18:43;88.67;;;57.73;;
7398;SDS011;3740;50.700;7.184;2023-03-04T02:21:28;89.97;;;57.33;;
7398;SDS011;3740;50.700;7.184;2023-03-04T02:26:43;90.83;;;58.47;;
7398;SDS011;3740;50.700;7.184;2023-03-04T02:29:11;88.33;;;56.00;;
7398;SDS011;3740;50.700;7.184;2023-03-04T02:31:39;90.03;;;58.40;;
7398;SDS011;3740;50.700;7.184;2023-03-04T02:34:10;84.63;;;54.97;;
7398;SDS011;3740;50.700;7.184;2023-03-04T02:36:41;85.63;;;56.10;;
7398;SDS011;3740;50.700;7.184;2023-03-04T02:39:29;85.67;;;56.10;;
7398;SDS011;3740;50.700;7.184;2023-03-04T02:42:00;86.30;;;57.77;;
7398;SDS011;3740;50.700;7.184;2023-03-04T02:44:28;83.67;;;55.30;;
7398;SDS011;3740;50.700;7.184;2023-03-04T02:46:56;91.73;;;58.20;;
7398;SDS011;3740;50.700;7.184;2023-03-04T02:49:22;89.00;;;58.73;;
7398;SDS011;3740;50.700;7.184;2023-03-04T02:51:51;85.13;;;58.37;;
7398;SDS011;3740;50.700;7.184;2023-03-04T02:54:19;86.10;;;58.43;;
7398;SDS011;3740;50.700;7.184;2023-03-04T02:56:47;92.63;;;60.83;;
7398;SDS011;3740;50.700;7.184;2023-03-04T02:59:15;89.33;;;59.87;;
7398;SDS011;3740;50.700;7.184;2023-03-04T03:01:41;91.07;;;60.13;;
7398;SDS011;3740;50.700;7.184;2023-03-04T03:04:06;90.37;;;59.43;;
7398;SDS011;3740;50.700;7.184;2023-03-04T03:06:32;88.37;;;58.70;;
7398;SDS011;3740;50.700;7.184;2023-03-04T03:08:58;88.40;;;58.20;;
7398;SDS011;3740;50.700;7.184;2023-03-04T03:11:23;95.60;;;61.27;;
7398;SDS011;3740;50.700;7.184;2023-03-04T03:13:49;87.90;;;58.30;;
7398;SDS011;3740;50.700;7.184;2023-03-04T03:16:15;85.10;;;57.10;;
7398;SDS011;3740;50.700;7.184;2023-03-04T03:18:40;89.40;;;59.40;;
7398;SDS011;3740;50.700;7.184;2023-03-04T03:21:06;84.50;;;56.67;;
7398;SDS011;3740;50.700;7.184;2023-03-04T03:23:32;83.87;;;57.37;;
7398;SDS011;3740;50.700;7.184;2023-03-04T03:25:58;87.27;;;57.07;;
7398;SDS011;3740;50.700;7.184;2023-03-04T03:28:24;88.13;;;59.20;;
7398;SDS011;3740;50.700;7.184;2023-03-04T03:30:50;84.37;;;55.77;;
7398;SDS011;3740;50.700;7.184;2023-03-04T03:33:15;81.30;;;56.57;;
7398;SDS011;3740;50.700;7.184;2023-03-04T03:35:41;81.53;;;55.67;;
7398;SDS011;3740;50.700;7.184;2023-03-04T03:38:07;81.87;;;57.33;;
7398;SDS011;3740;50.700;7.184;2023-03-04T03:40:32;80.27;;;56.03;;
7398;SDS011;3740;50.700;7.184;2023-03-04T03:42:58;77.33;;;55.57;;
7398;SDS011;3740;50.700;7.184;2023-03-04T03:45:23;79.57;;;55.53;;
7398;SDS011;3740;50.700;7.184;2023-03-04T03:47:49;80.00;;;55.77;;
7398;SDS011;3740;50.700;7.184;2023-03-04T03:50:15;72.47;;;52.90;;
7398;SDS011;3740;50.700;7.184;2023-03-04T03:52:40;81.40;;;55.27;;
7398;SDS011;3740;50.700;7.184;2023-03-04T03:55:06;77.23;;;54.83;;
7398;SDS011;3740;50.700;7.184;2023-03-04T03:57:32;86.37;;;58.00;;
7398;SDS011;3740;50.700;7.184;2023-03-04T03:59:57;81.77;;;55.40;;
7398;SDS011;3740;50.700;7.184;2023-03-04T04:02:23;81.00;;;56.37;;
7398;SDS011;3740;50.700;7.184;2023-03-04T04:04:49;80.90;;;54.73;;
7398;SDS011;3740;50.700;7.184;2023-03-04T04:07:15;80.60;;;55.70;;
7398;SDS011;3740;50.700;7.184;2023-03-04T04:09:40;80.73;;;55.73;;
7398;SDS011;3740;50.700;7.184;2023-03-04T04:12:06;77.20;;;54.50;;
7398;SDS011;3740;50.700;7.184;2023-03-04T04:14:32;78.90;;;55.27;;
7398;SDS011;3740;50.700;7.184;2023-03-04T04:16:58;87.30;;;59.43;;
7398;SDS011;3740;50.700;7.184;2023-03-04T04:19:24;80.47;;;57.03;;
7398;SDS011;3740;50.700;7.184;2023-03-04T04:21:50;80.77;;;54.07;;
7398;SDS011;3740;50.700;7.184;2023-03-04T04:24:15;87.23;;;57.33;;
7398;SDS011;3740;50.700;7.184;2023-03-04T04:26:41;81.33;;;55.97;;
7398;SDS011;3740;50.700;7.184;2023-03-04T04:29:07;76.83;;;55.30;;
7398;SDS011;3740;50.700;7.184;2023-03-04T04:31:34;80.17;;;55.13;;
7398;SDS011;3740;50.700;7.184;2023-03-04T04:34:00;82.93;;;55.23;;
7398;SDS011;3740;50.700;7.184;2023-03-04T04:36:25;79.07;;;53.67;;
7398;SDS011;3740;50.700;7.184;2023-03-04T04:38:51;75.77;;;53.50;;
7398;SDS011;3740;50.700;7.184;2023-03-04T04:41:18;79.70;;;57.60;;
7398;SDS011;3740;50.700;7.184;2023-03-04T04:43:45;88.93;;;59.53;;
7398;SDS011;3740;50.700;7.184;2023-03-04T04:46:11;83.20;;;55.60;;
7398;SDS011;3740;50.700;7.184;2023-03-04T04:48:36;83.70;;;53.67;;
7398;SDS011;3740;50.700;7.184;2023-03-04T04:51:02;79.60;;;53.80;;
7398;SDS011;3740;50.700;7.184;2023-03-04T04:53:28;81.00;;;55.17;;
7398;SDS011;3740;50.700;7.184;2023-03-04T04:55:54;82.47;;;55.80;;
7398;SDS011;3740;50.700;7.184;2023-03-04T04:58:19;78.30;;;53.60;;
7398;SDS011;3740;50.700;7.184;2023-03-04T05:00:45;75.27;;;50.97;;
7398;SDS011;3740;50.700;7.184;2023-03-04T05:03:10;74.77;;;51.57;;
7398;SDS011;3740;50.700;7.184;2023-03-04T05:05:36;71.63;;;49.93;;
7398;SDS011;3740;50.700;7.184;2023-03-04T05:08:02;69.13;;;48.90;;
7398;SDS011;3740;50.700;7.184;2023-03-04T05:10:27;62.00;;;45.67;;
7398;SDS011;3740;50.700;7.184;2023-03-04T05:12:53;62.97;;;45.00;;
7398;SDS011;3740;50.700;7.184;2023-03-04T05:15:18;67.47;;;47.47;;
7398;SDS011;3740;50.700;7.184;2023-03-04T05:17:44;62.07;;;44.93;;
7398;SDS011;3740;50.700;7.184;2023-03-04T05:20:09;68.10;;;45.63;;
7398;SDS011;3740;50.700;7.184;2023-03-04T05:22:35;63.00;;;42.17;;
7398;SDS011;3740;50.700;7.184;2023-03-04T05:25:01;61.63;;;42.50;;
7398;SDS011;3740;50.700;7.184;2023-03-04T05:27:27;55.60;;;40.63;;
7398;SDS011;3740;50.700;7.184;2023-03-04T05:29:53;58.50;;;41.73;;
7398;SDS011;3740;50.700;7.184;2023-03-04T05:32:19;61.23;;;43.03;;
7398;SDS011;3740;50.700;7.184;2023-03-04T05:34:45;53.07;;;40.77;;
7398;SDS011;3740;50.700;7.184;2023-03-04T05:37:10;56.90;;;41.00;;
7398;SDS011;3740;50.700;7.184;2023-03-04T05:39:36;53.23;;;39.50;;
7398;SDS011;3740;50.700;7.184;2023-03-04T05:42:02;56.27;;;40.90;;
7398;SDS011;3740;50.700;7.184;2023-03-04T05:44:27;57.23;;;41.00;;
7398;SDS011;3740;50.700;7.184;2023-03-04T05:46:53;58.97;;;43.30;;
7398;SDS011;3740;50.700;7.184;2023-03-04T05:49:18;59.00;;;42.03;;
7398;SDS011;3740;50.700;7.184;2023-03-04T05:51:44;65.73;;;45.17;;
7398;SDS011;3740;50.700;7.184;2023-03-04T05:54:09;59.13;;;41.93;;
7398;SDS011;3740;50.700;7.184;2023-03-04T05:56:35;54.57;;;39.10;;
7398;SDS011;3740;50.700;7.184;2023-03-04T05:59:00;54.77;;;39.30;;
7398;SDS011;3740;50.700;7.184;2023-03-04T06:01:26;52.60;;;37.37;;
7398;SDS011;3740;50.700;7.184;2023-03-04T06:03:52;47.97;;;34.90;;
7398;SDS011;3740;50.700;7.184;2023-03-04T06:06:17;50.00;;;34.63;;
7398;SDS011;3740;50.700;7.184;2023-03-04T06:08:43;46.50;;;34.70;;
7398;SDS011;3740;50.700;7.184;2023-03-04T06:11:08;48.17;;;34.90;;
7398;SDS011;3740;50.700;7.184;2023-03-04T06:13:34;47.23;;;32.70;;
7398;SDS011;3740;50.700;7.184;2023-03-04T06:16:00;40.20;;;30.90;;
7398;SDS011;3740;50.700;7.184;2023-03-04T06:18:26;50.27;;;34.97;;
7398;SDS011;3740;50.700;7.184;2023-03-04T06:20:59;43.30;;;32.80;;
7398;SDS011;3740;50.700;7.184;2023-03-04T06:23:26;44.73;;;32.47;;
7398;SDS011;3740;50.700;7.184;2023-03-04T06:25:52;43.17;;;28.57;;
7398;SDS011;3740;50.700;7.184;2023-03-04T06:28:19;42.63;;;28.33;;
7398;SDS011;3740;50.700;7.184;2023-03-04T06:30:45;40.67;;;29.97;;
7398;SDS011;3740;50.700;7.184;2023-03-04T06:33:10;40.03;;;27.03;;
7398;SDS011;3740;50.700;7.184;2023-03-04T06:35:36;40.30;;;28.10;;
7398;SDS011;3740;50.700;7.184;2023-03-04T06:38:02;42.57;;;29.90;;
7398;SDS011;3740;50.700;7.184;2023-03-04T06:40:27;39.37;;;28.57;;
7398;SDS011;3740;50.700;7.184;2023-03-04T06:42:53;40.33;;;29.37;;
7398;SDS011;3740;50.700;7.184;2023-03-04T06:45:18;37.63;;;27.80;;
7398;SDS011;3740;50.700;7.184;2023-03-04T06:47:44;38.33;;;27.17;;
7398;SDS011;3740;50.700;7.184;2023-03-04T06:50:10;40.13;;;26.73;;
7398;SDS011;3740;50.700;7.184;2023-03-04T06:52:37;40.83;;;27.20;;
7398;SDS011;3740;50.700;7.184;2023-03-04T06:55:03;39.90;;;24.10;;
7398;SDS011;3740;50.700;7.184;2023-03-04T06:57:29;39.30;;;24.57;;
7398;SDS011;3740;50.700;7.184;2023-03-04T06:59:55;37.93;;;25.80;;
7398;SDS011;3740;50.700;7.184;2023-03-04T07:02:21;40.50;;;25.73;;
7398;SDS011;3740;50.700;7.184;2023-03-04T07:04:47;35.87;;;25.20;;
7398;SDS011;3740;50.700;7.184;2023-03-04T07:07:12;38.47;;;26.50;;
7398;SDS011;3740;50.700;7.184;2023-03-04T07:09:38;34.53;;;23.50;;
7398;SDS011;3740;50.700;7.184;2023-03-04T07:12:04;33.27;;;24.27;;
7398;SDS011;3740;50.700;7.184;2023-03-04T07:14:29;34.47;;;24.63;;
7398;SDS011;3740;50.700;7.184;2023-03-04T07:16:55;38.70;;;24.20;;
7398;SDS011;3740;50.700;7.184;2023-03-04T07:19:21;29.43;;;21.33;;
7398;SDS011;3740;50.700;7.184;2023-03-04T07:21:46;35.30;;;24.03;;
7398;SDS011;3740;50.700;7.184;2023-03-04T07:24:12;32.10;;;22.43;;
7398;SDS011;3740;50.700;7.184;2023-03-04T07:26:38;32.30;;;20.90;;
7398;SDS011;3740;50.700;7.184;2023-03-04T07:29:04;35.53;;;20.20;;
7398;SDS011;3740;50.700;7.184;2023-03-04T07:31:30;28.43;;;19.30;;
7398;SDS011;3740;50.700;7.184;2023-03-04T07:33:59;27.67;;;18.60;;
7398;SDS011;3740;50.700;7.184;2023-03-04T07:36:26;26.77;;;18.10;;
7398;SDS011;3740;50.700;7.184;2023-03-04T07:38:52;27.67;;;17.57;;
7398;SDS011;3740;50.700;7.184;2023-03-04T07:41:22;27.33;;;16.63;;
7398;SDS011;3740;50.700;7.184;2023-03-04T07:43:49;23.73;;;16.13;;
7398;SDS011;3740;50.700;7.184;2023-03-04T07:46:15;23.17;;;15.13;;
7398;SDS011;3740;50.700;7.184;2023-03-04T07:48:42;19.73;;;13.83;;
7398;SDS011;3740;50.700;7.184;2023-03-04T07:51:09;25.57;;;14.73;;
7398;SDS011;3740;50.700;7.184;2023-03-04T07:53:37;20.60;;;13.27;;
7398;SDS011;3740;50.700;7.184;2023-03-04T07:56:05;20.13;;;13.60;;
7398;SDS011;3740;50.700;7.184;2023-03-04T07:58:32;20.27;;;13.27;;
7398;SDS011;3740;50.700;7.184;2023-03-04T08:00:58;19.20;;;12.53;;
7398;SDS011;3740;50.700;7.184;2023-03-04T08:03:24;21.93;;;13.33;;
7398;SDS011;3740;50.700;7.184;2023-03-04T08:05:49;19.07;;;11.90;;
7398;SDS011;3740;50.700;7.184;2023-03-04T08:08:16;23.37;;;12.57;;
7398;SDS011;3740;50.700;7.184;2023-03-04T08:10:42;24.30;;;12.97;;
7398;SDS011;3740;50.700;7.184;2023-03-04T08:13:08;17.20;;;11.60;;
7398;SDS011;3740;50.700;7.184;2023-03-04T08:15:38;17.73;;;11.13;;
7398;SDS011;3740;50.700;7.184;2023-03-04T08:18:04;17.87;;;10.77;;
7398;SDS011;3740;50.700;7.184;2023-03-04T08:20:30;14.60;;;10.30;;
7398;SDS011;3740;50.700;7.184;2023-03-04T08:22:55;20.37;;;11.10;;
7398;SDS011;3740;50.700;7.184;2023-03-04T08:25:21;19.60;;;11.27;;
7398;SDS011;3740;50.700;7.184;2023-03-04T08:27:47;16.17;;;10.20;;
7398;SDS011;3740;50.700;7.184;2023-03-04T08:30:12;22.93;;;11.33;;
7398;SDS011;3740;50.700;7.184;2023-03-04T08:32:38;15.43;;;10.63;;
7398;SDS011;3740;50.700;7.184;2023-03-04T08:35:03;17.43;;;10.10;;
7398;SDS011;3740;50.700;7.184;2023-03-04T08:37:29;17.17;;;9.77;;
7398;SDS011;3740;50.700;7.184;2023-03-04T08:39:55;17.20;;;9.97;;
7398;SDS011;3740;50.700;7.184;2023-03-04T08:42:24;19.80;;;12.40;;
7398;SDS011;3740;50.700;7.184;2023-03-04T08:44:49;20.13;;;10.13;;
7398;SDS011;3740;50.700;7.184;2023-03-04T08:47:15;16.67;;;9.60;;
7398;SDS011;3740;50.700;7.184;2023-03-04T08:49:40;16.63;;;10.00;;
7398;SDS011;3740;50.700;7.184;2023-03-04T08:52:06;18.03;;;9.80;;
7398;SDS011;3740;50.700;7.184;2023-03-04T08:54:32;17.50;;;9.07;;
7398;SDS011;3740;50.700;7.184;2023-03-04T08:56:57;18.00;;;9.77;;
7398;SDS011;3740;50.700;7.184;2023-03-04T08:59:23;18.10;;;9.67;;
7398;SDS011;3740;50.700;7.184;2023-03-04T09:01:48;15.53;;;9.57;;
7398;SDS011;3740;50.700;7.184;2023-03-04T09:04:14;15.40;;;8.97;;
7398;SDS011;3740;50.700;7.184;2023-03-04T09:06:39;19.90;;;10.50;;
7398;SDS011;3740;50.700;7.184;2023-03-04T09:09:05;19.10;;;10.13;;
7398;SDS011;3740;50.700;7.184;2023-03-04T09:11:31;17.70;;;10.40;;
7398;SDS011;3740;50.700;7.184;2023-03-04T09:13:56;16.63;;;10.10;;
7398;SDS011;3740;50.700;7.184;2023-03-04T09:16:22;18.67;;;9.97;;
7398;SDS011;3740;50.700;7.184;2023-03-04T09:18:47;18.87;;;9.87;;
7398;SDS011;3740;50.700;7.184;2023-03-04T09:21:13;14.83;;;7.80;;
7398;SDS011;3740;50.700;7.184;2023-03-04T09:23:40;15.10;;;8.47;;
7398;SDS011;3740;50.700;7.184;2023-03-04T09:26:20;13.63;;;6.23;;
7398;SDS011;3740;50.700;7.184;2023-03-04T09:28:51;16.43;;;6.60;;
7398;SDS011;3740;50.700;7.184;2023-03-04T09:31:17;14.17;;;6.40;;
7398;SDS011;3740;50.700;7.184;2023-03-04T09:33:43;12.37;;;6.50;;
7398;SDS011;3740;50.700;7.184;2023-03-04T09:36:10;11.07;;;6.60;;
7398;SDS011;3740;50.700;7.184;2023-03-04T09:38:37;13.30;;;7.27;;
7398;SDS011;3740;50.700;7.184;2023-03-04T09:41:05;11.17;;;5.87;;
7398;SDS011;3740;50.700;7.184;2023-03-04T09:43:33;10.57;;;6.50;;
7398;SDS011;3740;50.700;7.184;2023-03-04T09:46:07;15.63;;;7.30;;
7398;SDS011;3740;50.700;7.184;2023-03-04T09:48:49;12.30;;;7.27;;
7398;SDS011;3740;50.700;7.184;2023-03-04T09:56:20;14.70;;;6.43;;
7398;SDS011;3740;50.700;7.184;2023-03-04T10:01:25;12.00;;;6.47;;
7398;SDS011;3740;50.700;7.184;2023-03-04T10:04:02;10.60;;;6.27;;
7398;SDS011;3740;50.700;7.184;2023-03-04T10:06:31;13.13;;;6.50;;
7398;SDS011;3740;50.700;7.184;2023-03-04T10:09:05;10.23;;;6.77;;
7398;SDS011;3740;50.700;7.184;2023-03-04T10:11:47;12.37;;;6.80;;
7398;SDS011;3740;50.700;7.184;2023-03-04T10:14:23;12.27;;;6.73;;
7398;SDS011;3740;50.700;7.184;2023-03-04T10:17:05;11.93;;;6.80;;
7398;SDS011;3740;50.700;7.184;2023-03-04T10:19:56;12.73;;;6.33;;
7398;SDS011;3740;50.700;7.184;2023-03-04T10:22:31;11.63;;;6.43;;
7398;SDS011;3740;50.700;7.184;2023-03-04T10:25:04;10.33;;;6.53;;
7398;SDS011;3740;50.700;7.184;2023-03-04T10:27:41;11.73;;;6.20;;
7398;SDS011;3740;50.700;7.184;2023-03-04T10:30:11;12.17;;;6.37;;
7398;SDS011;3740;50.700;7.184;2023-03-04T10:32:48;10.47;;;5.47;;
7398;SDS011;3740;50.700;7.184;2023-03-04T10:35:14;12.10;;;5.73;;
7398;SDS011;3740;50.700;7.184;2023-03-04T10:37:44;11.47;;;6.10;;
7398;SDS011;3740;50.700;7.184;2023-03-04T10:40:17;8.63;;;5.70;;
7398;SDS011;3740;50.700;7.184;2023-03-04T10:42:48;11.00;;;7.10;;
7398;SDS011;3740;50.700;7.184;2023-03-04T10:45:19;13.80;;;7.93;;
7398;SDS011;3740;50.700;7.184;2023-03-04T10:47:53;12.40;;;10.47;;
7398;SDS011;3740;50.700;7.184;2023-03-04T10:50:23;14.70;;;9.67;;
7398;SDS011;3740;50.700;7.184;2023-03-04T10:52:51;10.60;;;8.17;;
7398;SDS011;3740;50.700;7.184;2023-03-04T10:55:23;12.10;;;6.93;;
7398;SDS011;3740;50.700;7.184;2023-03-04T10:57:53;10.80;;;7.33;;
7398;SDS011;3740;50.700;7.184;2023-03-04T11:00:32;9.60;;;6.70;;
7398;SDS011;3740;50.700;7.184;2023-03-04T11:05:51;15.50;;;9.50;;
7398;SDS011;3740;50.700;7.184;2023-03-04T11:08:42;12.40;;;8.37;;
7398;SDS011;3740;50.700;7.184;2023-03-04T11:11:41;9.80;;;8.03;;
7398;SDS011;3740;50.700;7.184;2023-03-04T11:14:18;10.13;;;7.37;;
7398;SDS011;3740;50.700;7.184;2023-03-04T11:16:54;8.73;;;5.87;;
7398;SDS011;3740;50.700;7.184;2023-03-04T11:19:44;8.90;;;6.30;;
7398;SDS011;3740;50.700;7.184;2023-03-04T11:22:14;6.77;;;5.70;;
7398;SDS011;3740;50.700;7.184;2023-03-04T11:24:42;7.43;;;6.07;;
7398;SDS011;3740;50.700;7.184;2023-03-04T11:27:13;8.53;;;6.20;;
7398;SDS011;3740;50.700;7.184;2023-03-04T11:29:50;9.93;;;7.63;;
7398;SDS011;3740;50.700;7.184;2023-03-04T11:32:27;10.20;;;8.77;;
7398;SDS011;3740;50.700;7.184;2023-03-04T11:38:05;10.30;;;8.27;;
7398;SDS011;3740;50.700;7.184;2023-03-04T11:40:40;10.77;;;7.37;;
7398;SDS011;3740;50.700;7.184;2023-03-04T11:43:16;11.80;;;7.83;;
7398;SDS011;3740;50.700;7.184;2023-03-04T11:51:37;10.67;;;7.43;;
7398;SDS011;3740;50.700;7.184;2023-03-04T11:54:19;13.57;;;8.53;;
7398;SDS011;3740;50.700;7.184;2023-03-04T11:59:58;12.67;;;7.93;;
7398;SDS011;3740;50.700;7.184;2023-03-04T12:02:49;10.47;;;7.97;;
7398;SDS011;3740;50.700;7.184;2023-03-04T12:14:24;12.53;;;7.23;;
7398;SDS011;3740;50.700;7.184;2023-03-04T12:41:33;16.60;;;9.67;;
7398;SDS011;3740;50.700;7.184;2023-03-04T12:44:17;13.77;;;8.90;;
7398;SDS011;3740;50.700;7.184;2023-03-04T12:52:22;10.00;;;7.17;;
7398;SDS011;3740;50.700;7.184;2023-03-04T12:54:53;9.43;;;7.57;;
7398;SDS011;3740;50.700;7.184;2023-03-04T12:57:23;9.50;;;6.23;;
7398;SDS011;3740;50.700;7.184;2023-03-04T12:59:54;8.50;;;6.43;;
7398;SDS011;3740;50.700;7.184;2023-03-04T13:05:38;8.13;;;6.93;;
7398;SDS011;3740;50.700;7.184;2023-03-04T13:10:49;10.33;;;6.47;;
7398;SDS011;3740;50.700;7.184;2023-03-04T13:16:21;9.13;;;6.20;;
7398;SDS011;3740;50.700;7.184;2023-03-04T13:18:56;9.40;;;6.10;;
7398;SDS011;3740;50.700;7.184;2023-03-04T13:21:24;9.80;;;6.70;;
7398;SDS011;3740;50.700;7.184;2023-03-04T13:23:55;8.57;;;6.40;;
7398;SDS011;3740;50.700;7.184;2023-03-04T13:29:08;7.53;;;6.13;;
7398;SDS011;3740;50.700;7.184;2023-03-04T13:31:55;7.97;;;5.67;;
7398;SDS011;3740;50.700;7.184;2023-03-04T13:37:28;7.67;;;5.57;;
7398;SDS011;3740;50.700;7.184;2023-03-04T13:42:43;7.97;;;5.47;;
7398;SDS011;3740;50.700;7.184;2023-03-04T13:45:28;8.93;;;5.00;;
7398;SDS011;3740;50.700;7.184;2023-03-04T13:47:57;7.03;;;5.27;;
7398;SDS011;3740;50.700;7.184;2023-03-04T13:53:21;7.53;;;5.20;;
7398;SDS011;3740;50.700;7.184;2023-03-04T13:58:51;5.50;;;4.93;;
7398;SDS011;3740;50.700;7.184;2023-03-04T14:01:27;6.97;;;4.70;;
7398;SDS011;3740;50.700;7.184;2023-03-04T14:03:55;6.33;;;4.80;;
7398;SDS011;3740;50.700;7.184;2023-03-04T14:06:23;6.37;;;4.27;;
7398;SDS011;3740;50.700;7.184;2023-03-04T14:08:50;6.93;;;4.33;;
7398;SDS011;3740;50.700;7.184;2023-03-04T14:11:21;8.07;;;4.43;;
7398;SDS011;3740;50.700;7.184;2023-03-04T14:13:50;6.83;;;4.40;;
7398;SDS011;3740;50.700;7.184;2023-03-04T14:16:19;6.03;;;4.27;;
7398;SDS011;3740;50.700;7.184;2023-03-04T14:18:55;6.23;;;4.20;;
7398;SDS011;3740;50.700;7.184;2023-03-04T14:21:22;6.43;;;5.00;;
7398;SDS011;3740;50.700;7.184;2023-03-04T14:23:57;7.77;;;4.93;;
7398;SDS011;3740;50.700;7.184;2023-03-04T14:26:28;7.73;;;5.17;;
7398;SDS011;3740;50.700;7.184;2023-03-04T14:28:55;7.87;;;5.50;;
7398;SDS011;3740;50.700;7.184;2023-03-04T14:31:23;8.27;;;4.60;;
7398;SDS011;3740;50.700;7.184;2023-03-04T14:33:53;5.80;;;4.47;;
7398;SDS011;3740;50.700;7.184;2023-03-04T14:36:24;8.23;;;6.90;;
7398;SDS011;3740;50.700;7.184;2023-03-04T14:38:51;6.43;;;5.33;;
7398;SDS011;3740;50.700;7.184;2023-03-04T14:41:24;10.63;;;5.47;;
7398;SDS011;3740;50.700;7.184;2023-03-04T14:43:59;6.40;;;4.50;;
7398;SDS011;3740;50.700;7.184;2023-03-04T14:46:49;6.67;;;4.10;;
7398;SDS011;3740;50.700;7.184;2023-03-04T14:49:19;6.10;;;4.17;;
7398;SDS011;3740;50.700;7.184;2023-03-04T14:51:49;6.40;;;5.20;;
7398;SDS011;3740;50.700;7.184;2023-03-04T14:57:27;5.87;;;4.00;;
7398;SDS011;3740;50.700;7.184;2023-03-04T14:59:54;5.40;;;3.87;;
7398;SDS011;3740;50.700;7.184;2023-03-04T15:02:23;6.23;;;4.00;;
7398;SDS011;3740;50.700;7.184;2023-03-04T15:04:56;5.57;;;3.83;;
7398;SDS011;3740;50.700;7.184;2023-03-04T15:07:28;4.90;;;4.00;;
7398;SDS011;3740;50.700;7.184;2023-03-04T15:09:57;5.67;;;4.30;;
7398;SDS011;3740;50.700;7.184;2023-03-04T15:12:30;5.67;;;4.30;;
7398;SDS011;3740;50.700;7.184;2023-03-04T15:14:58;6.93;;;4.90;;
7398;SDS011;3740;50.700;7.184;2023-03-04T15:17:31;7.90;;;4.57;;
7398;SDS011;3740;50.700;7.184;2023-03-04T15:22:56;4.27;;;3.73;;
7398;SDS011;3740;50.700;7.184;2023-03-04T15:25:20;6.63;;;4.40;;
7398;SDS011;3740;50.700;7.184;2023-03-04T15:27:47;4.33;;;3.83;;
7398;SDS011;3740;50.700;7.184;2023-03-04T15:32:40;5.47;;;4.60;;
7398;SDS011;3740;50.700;7.184;2023-03-04T15:35:08;6.87;;;5.13;;
7398;SDS011;3740;50.700;7.184;2023-03-04T15:37:36;11.83;;;6.57;;
7398;SDS011;3740;50.700;7.184;2023-03-04T15:40:04;6.73;;;4.90;;
7398;SDS011;3740;50.700;7.184;2023-03-04T15:42:37;7.67;;;5.07;;
7398;SDS011;3740;50.700;7.184;2023-03-04T15:45:10;10.43;;;4.87;;
7398;SDS011;3740;50.700;7.184;2023-03-04T15:47:52;6.87;;;4.73;;
7398;SDS011;3740;50.700;7.184;2023-03-04T15:50:18;8.33;;;4.83;;
7398;SDS011;3740;50.700;7.184;2023-03-04T15:52:44;6.43;;;4.97;;
7398;SDS011;3740;50.700;7.184;2023-03-04T15:55:17;8.10;;;4.83;;
7398;SDS011;3740;50.700;7.184;2023-03-04T15:57:44;8.97;;;4.20;;
7398;SDS011;3740;50.700;7.184;2023-03-04T16:00:14;4.80;;;3.80;;
7398;SDS011;3740;50.700;7.184;2023-03-04T16:02:40;6.60;;;3.80;;
7398;SDS011;3740;50.700;7.184;2023-03-04T16:05:06;5.97;;;3.80;;
7398;SDS011;3740;50.700;7.184;2023-03-04T16:07:33;6.30;;;3.73;;
7398;SDS011;3740;50.700;7.184;2023-03-04T16:10:00;4.70;;;3.50;;
7398;SDS011;3740;50.700;7.184;2023-03-04T16:12:32;5.40;;;3.40;;
7398;SDS011;3740;50.700;7.184;2023-03-04T16:14:58;5.40;;;3.90;;
7398;SDS011;3740;50.700;7.184;2023-03-04T16:17:23;4.13;;;3.73;;
7398;SDS011;3740;50.700;7.184;2023-03-04T16:19:49;4.43;;;3.47;;
7398;SDS011;3740;50.700;7.184;2023-03-04T16:22:16;4.10;;;3.70;;
7398;SDS011;3740;50.700;7.184;2023-03-04T16:24:48;4.33;;;3.43;;
7398;SDS011;3740;50.700;7.184;2023-03-04T16:27:14;4.37;;;3.47;;
7398;SDS011;3740;50.700;7.184;2023-03-04T16:29:41;5.40;;;3.40;;
7398;SDS011;3740;50.700;7.184;2023-03-04T16:32:07;6.17;;;3.67;;
7398;SDS011;3740;50.700;7.184;2023-03-04T16:34:33;4.63;;;3.80;;
7398;SDS011;3740;50.700;7.184;2023-03-04T16:36:59;4.40;;;3.70;;
7398;SDS011;3740;50.700;7.184;2023-03-04T16:39:30;6.40;;;3.80;;